Pagrindinis puslapis
METAR-TAF:

METAR-TAF

Oro uostai :

Niurnbergas, Vokietija

platuma: 49-30N, ilguma: 011-03E, Aukštis: 318 m

Dabartinis oras

Ataskaita buvo paskelbta 32 minutes, ne 00:20 UTC
Vėjas 4 kt iš Šiaurės
Temperatūra 2°C
Drėgmė 75%
Slėgis 1018 hPa
Matomumas 10 km arba daugiau
nėra debesų žemiau 1500 m ir nėra kamuolinių lietaus debesų

METAR: EDDN 290020Z 36004KT CAVOK 02/M02 Q1018

Laikas: 01:52 (00:52 UTC)

Prognozė

Ataskaita buvo paskelbta 1 valandą ir 52 minutes, ne 23:00 UTC
Prognozė galioja nuo 29 metu 00 UTC su 29 metu 24 UTC
Vėjas 4 kt iš Šiaurės
Matomumas 10 km arba daugiau
nėra debesų žemiau 1500 m ir nėra kamuolinių lietaus debesų
Tapsmas
nuo 29 metu 10 UTC su 29 metu 12 UTC
Vėjas 10 kt iš Šiaurės
Tikimybė 30% :
Laikinai
nuo 29 metu 18 UTC su 29 metu 22 UTC
Vėjas 15 kt iš Šiaurės su gūsio iki 25 kt

TAF: EDDN 282300Z 2900/2924 35004KT CAVOK BECMG 2910/2912 35010KT PROB30 TEMPO 2918/2922 35015G25KT

Orai ataskaitas ir orų prognozės (METAR, TAF).

turimą stotys yra geltonos ir raudonos taškus žemėlapyje.

Perkelti pele per norėdami pamatyti stoties vardą.

Tada spustelėkite, norėdami matyti oro stebėjimo ir prognozės.

Norėdami pakeisti žemėlapį: spustelėkite ant žalios mygtukų su juodo kryžiaus žemyn,; žalią mygtuką su brūkšneliu, jei norite nutolinti; arba žalių rodyklių gretimoms žemėlapius.


METAR-TAF: